地図

経路データ

SID SEASON NUMBER BASIN SUBBASIN NAME ISO_TIME NATURE LAT LON WMO_WIND WMO_PRES WMO_AGENCY TRACK_TYPE DIST2LAND LANDFALL IFLAG USA_AGENCY USA_ATCF_ID USA_LAT USA_LON USA_RECORD USA_STATUS USA_WIND USA_PRES USA_SSHS USA_R34_NE USA_R34_SE USA_R34_SW USA_R34_NW USA_R50_NE USA_R50_SE USA_R50_SW USA_R50_NW USA_R64_NE USA_R64_SE USA_R64_SW USA_R64_NW USA_POCI USA_ROCI USA_RMW USA_EYE TOKYO_LAT TOKYO_LON TOKYO_GRADE TOKYO_WIND TOKYO_PRES TOKYO_R50_DIR TOKYO_R50_LONG TOKYO_R50_SHORT TOKYO_R30_DIR TOKYO_R30_LONG TOKYO_R30_SHORT TOKYO_LAND CMA_LAT CMA_LON CMA_CAT CMA_WIND CMA_PRES HKO_LAT HKO_LON HKO_CAT HKO_WIND HKO_PRES NEWDELHI_LAT NEWDELHI_LON NEWDELHI_GRADE NEWDELHI_WIND NEWDELHI_PRES NEWDELHI_CI NEWDELHI_DP NEWDELHI_POCI REUNION_LAT REUNION_LON REUNION_TYPE REUNION_WIND REUNION_PRES REUNION_TNUM REUNION_CI REUNION_RMW REUNION_R34_NE REUNION_R34_SE REUNION_R34_SW REUNION_R34_NW REUNION_R50_NE REUNION_R50_SE REUNION_R50_SW REUNION_R50_NW REUNION_R64_NE REUNION_R64_SE REUNION_R64_SW REUNION_R64_NW BOM_LAT BOM_LON BOM_TYPE BOM_WIND BOM_PRES BOM_TNUM BOM_CI BOM_RMW BOM_R34_NE BOM_R34_SE BOM_R34_SW BOM_R34_NW BOM_R50_NE BOM_R50_SE BOM_R50_SW BOM_R50_NW BOM_R64_NE BOM_R64_SE BOM_R64_SW BOM_R64_NW BOM_ROCI BOM_POCI BOM_EYE BOM_POS_METHOD BOM_PRES_METHOD NADI_LAT NADI_LON NADI_CAT NADI_WIND NADI_PRES WELLINGTON_LAT WELLINGTON_LON WELLINGTON_WIND WELLINGTON_PRES DS824_LAT DS824_LON DS824_STAGE DS824_WIND DS824_PRES TD9636_LAT TD9636_LON TD9636_STAGE TD9636_WIND TD9636_PRES TD9635_LAT TD9635_LON TD9635_WIND TD9635_PRES TD9635_ROCI NEUMANN_LAT NEUMANN_LON NEUMANN_CLASS NEUMANN_WIND NEUMANN_PRES MLC_LAT MLC_LON MLC_CLASS MLC_WIND MLC_PRES USA_GUST BOM_GUST BOM_GUST_PER REUNION_GUST REUNION_GUST_PER USA_SEAHGT USA_SEARAD_NE USA_SEARAD_SE USA_SEARAD_SW USA_SEARAD_NW STORM_SPEED STORM_DIR
1983276N06130 1983 66 WP MM HERBERT 1983-10-03 00:00:00 NR 6.00000 129.900 main 392 343 __________O___ -1 6.00000 129.900 0 11 263
1983276N06130 1983 66 WP MM HERBERT 1983-10-03 03:00:00 NR 5.93338 129.349 main 333 282 __________P___ -1 5.93338 129.349 0 11 262
1983276N06130 1983 66 WP MM HERBERT 1983-10-03 06:00:00 NR 5.85317 128.808 main 282 238 __________P___ -1 5.85317 128.808 0 11 260
1983276N06130 1983 66 WP MM HERBERT 1983-10-03 09:00:00 NR 5.74636 128.288 main 241 193 __________P___ -1 5.74636 128.288 0 10 256
1983276N06130 1983 66 WP MM HERBERT 1983-10-03 12:00:00 NR 5.60000 127.800 main 193 160 __________O___ -1 5.60000 127.800 0 10 250
1983276N06130 1983 66 WP MM HERBERT 1983-10-03 15:00:00 NR 5.41273 127.347 main 158 142 __________P___ -1 5.41273 127.347 0 10 248
1983276N06130 1983 66 WP MM HERBERT 1983-10-03 18:00:00 NR 5.22944 126.902 main 145 134 __________P___ -1 5.22944 126.902 0 10 251
1983276N06130 1983 66 WP MM HERBERT 1983-10-03 21:00:00 NR 5.10645 126.431 main 124 78 __________P___ -1 5.10645 126.431 0 10 263
1983276N06130 1983 66 WP MM HERBERT 1983-10-04 00:00:00 NR 5.10000 125.900 main 78 33 __________O___ -1 5.10000 125.900 0 12 279
1983276N06130 1983 66 WP MM HERBERT 1983-10-04 03:00:00 NR 5.28596 125.273 main 33 31 __________P___ -1 5.28596 125.273 0 14 290
1983276N06130 1983 66 WP MM HERBERT 1983-10-04 06:00:00 NR 5.58750 124.583 main 46 35 __________P___ -1 5.58750 124.583 0 16 295
1983276N06130 1983 66 WP MM HERBERT 1983-10-04 09:00:00 NR 5.94527 123.851 main 49 49 __________P___ -1 5.94527 123.851 0 16 296
1983276N06130 1983 66 WP MM HERBERT 1983-10-04 12:00:00 NR 6.30000 123.100 main 111 46 __________O___ -1 6.30000 123.100 0 17 291
1983276N06130 1983 66 WP MM HERBERT 1983-10-04 15:00:00 NR 6.54849 122.295 main 46 33 __________P___ -1 6.54849 122.295 0 17 287
1983276N06130 1983 66 WP MM HERBERT 1983-10-04 18:00:00 NR 6.78562 121.488 main 55 55 __________P___ -1 6.78562 121.488 0 16 287
1983276N06130 1983 66 WP MM HERBERT 1983-10-04 21:00:00 NR 7.02985 120.736 main 133 132 __________P___ -1 7.02985 120.736 0 15 290
1983276N06130 1983 66 WP MM HERBERT 1983-10-05 00:00:00 NR 7.30000 120.100 main 200 200 __________O___ -1 7.30000 120.100 0 12 299
1983276N06130 1983 66 WP MM HERBERT 1983-10-05 03:00:00 NR 7.62045 119.657 main 236 181 __________P___ -1 7.62045 119.657 0 10 311
1983276N06130 1983 66 WP MM HERBERT 1983-10-05 06:00:00 NR 7.96900 119.330 main 173 133 __________P___ -1 7.96900 119.330 0 9 320
1983276N06130 1983 66 WP MM HERBERT 1983-10-05 09:00:00 NR 8.33311 119.063 main 133 78 __________P___ -1 8.33311 119.063 0 9 324
1983276N06130 1983 66 WP MM HERBERT 1983-10-05 12:00:00 NR 8.70000 118.800 main 78 24 __________O___ -1 8.70000 118.800 0 10 322
1983276N06130 1983 66 WP MM HERBERT 1983-10-05 15:00:00 NR 9.07823 118.473 main 24 0 __________P___ -1 9.07823 118.473 0 10 319
1983276N06130 1983 66 WP MM HERBERT 1983-10-05 18:00:00 NR 9.45219 118.137 main 15 15 __________P___ -1 9.45219 118.137 0 10 317
1983276N06130 1983 66 WP MM HERBERT 1983-10-05 21:00:00 NR 9.80006 117.783 main 62 62 __________P___ -1 9.80006 117.783 0 10 309
1983276N06130 1983 66 WP MM HERBERT 1983-10-06 00:00:00 TS 10.1000 117.320 main 114 114 __O_______O___ -1 10.1000 117.000 0 19 1006 10.1000 117.400 0 11 298
1983276N06130 1983 66 WP MM HERBERT 1983-10-06 03:00:00 TS 10.2979 116.821 main 164 164 __P_______P___ -1 10.2351 116.505 0 19 1006 10.3294 116.978 0 13 289
1983276N06130 1983 66 WP MM HERBERT 1983-10-06 06:00:00 TS 10.5300 116.077 1006 tokyo main 235 235 _OO_______P___ -1 11.0000 114.500 2 1006 0 0 0 10.4000 116.000 0 19 1006 10.5100 116.530 0 14 287
1983276N06130 1983 66 WP MM HERBERT 1983-10-06 09:00:00 TS 10.7057 115.488 main 297 297 _PP_______P___ -1 10.9925 114.338 2 1005 0 0 10.6075 115.485 0 21 1005 10.6606 116.066 0 11 288
1983276N06130 1983 66 WP MM HERBERT 1983-10-06 12:00:00 TS 10.8500 115.050 1004 tokyo main 345 338 OOO_______O___ jtwc_wp WP131983 10.8000 115.600 25 -1 11.0000 114.200 2 1004 0 0 0 10.8000 115.000 1 23 1004 10.8000 115.600 1 25 8 288
1983276N06130 1983 66 WP MM HERBERT 1983-10-06 15:00:00 TS 10.9587 114.682 main 386 386 PPP_______P___ WP131983 10.8726 115.152 27 -1 11.0350 114.100 2 1003 0 0 10.9149 114.570 1 23 1004 10.9693 115.142 1 27 7 288
1983276N06130 1983 66 WP MM HERBERT 1983-10-06 18:00:00 TS 11.0613 114.376 1002 tokyo main 419 419 OOO_______P___ jtwc_wp WP131983 11.0000 114.700 30 -1 11.1000 114.000 2 1002 0 0 0 11.0000 114.200 1 23 1004 11.1299 114.685 1 30 7 291
1983276N06130 1983 66 WP MM HERBERT 1983-10-06 21:00:00 TS 11.1920 114.057 main 452 452 PPP_______P___ WP131983 11.2075 114.243 32 -1 11.1925 113.865 2 1001 0 0 11.0924 113.885 1 26 1002 11.2755 114.236 1 32 7 292
1983276N06130 1983 66 WP MM HERBERT 1983-10-07 00:00:00 TS 11.3250 113.725 35 1000 tokyo main 479 445 OOO_______O___ jtwc_wp WP131983 11.4000 113.800 35 0 11.3000 113.700 3 35 1000 0 9 60 60 0 11.2000 113.600 1 29 1000 11.4000 113.800 2 35 7 290
1983276N06130 1983 66 WP MM HERBERT 1983-10-07 03:00:00 TS 11.4239 113.398 main 445 410 PPP_______P___ WP131983 11.4649 113.392 37 0 11.4000 113.515 3 37 999 0 9 60 60 11.3424 113.307 1 33 999 11.4882 113.377 2 36 7 286
1983276N06130 1983 66 WP MM HERBERT 1983-10-07 06:00:00 TS 11.5135 113.063 40 998 tokyo main 410 365 OOOO______P___ jtwc_wp WP131983 11.5000 113.000 40 0 11.5000 113.300 3 40 998 0 9 60 60 0 11.5000 113.000 2 38 998 11.5000 113.000 TD 30 998 11.5573 112.970 2 37 7 286
1983276N06130 1983 66 WP MM HERBERT 1983-10-07 09:00:00 TS 11.6145 112.711 main 365 331 PPPP______P___ WP131983 11.6000 112.593 40 0 11.6000 113.065 3 40 998 0 9 60 60 11.6425 112.642 2 38 996 11.6001 112.640 TD 32 996 11.6227 112.577 2 38 7 287
1983276N06130 1983 66 WP MM HERBERT 1983-10-07 12:00:00 TS 11.7211 112.363 40 998 tokyo main 331 296 OOOO______O___ jtwc_wp WP131983 11.7000 112.200 40 0 11.7000 112.800 3 40 998 0 9 60 60 0 11.8000 112.300 2 38 995 11.7000 112.300 TS 35 995 11.7000 112.200 2 40 7 289
1983276N06130 1983 66 WP MM HERBERT 1983-10-07 15:00:00 TS 11.8358 112.044 main 286 262 PPPP______P___ WP131983 11.7349 111.842 40 0 11.8000 112.515 3 40 997 0 9 60 60 12.0299 112.035 2 43 993 11.7999 111.992 TS 37 993 11.8145 111.836 2 41 7 290
1983276N06130 1983 66 WP MM HERBERT 1983-10-07 18:00:00 TS 11.9484 111.737 40 996 tokyo main 251 217 OOOO______P___ jtwc_wp WP131983 11.8000 111.500 40 0 11.9000 112.200 3 40 996 0 9 60 60 0 12.2000 111.800 3 48 992 11.9000 111.700 TS 40 992 11.9422 111.485 2 42 6 289
1983276N06130 1983 66 WP MM HERBERT 1983-10-07 21:00:00 TS 12.0432 111.423 main 217 182 PPPP______P___ WP131983 11.9850 111.150 42 0 11.9925 111.857 3 42 996 0 9 65 65 12.1725 111.557 3 48 992 11.9924 111.407 TS 42 991 12.0739 111.142 2 43 7 287
1983276N06130 1983 66 WP MM HERBERT 1983-10-08 00:00:00 TS 12.1400 111.100 45 996 tokyo main 182 148 OOOO______O___ jtwc_wp WP131983 12.2000 110.800 45 0 12.1000 111.500 3 45 996 0 9 70 70 0 12.1000 111.300 3 48 992 12.1000 111.100 TS 45 990 12.2000 110.800 2 45 7 288
1983276N06130 1983 66 WP MM HERBERT 1983-10-08 03:00:00 TS 12.2502 110.761 main 145 100 PPPP______P___ WP131983 12.3725 110.450 47 0 12.2275 111.150 3 45 995 0 9 85 85 12.1125 111.015 3 48 992 12.2275 110.757 TS 45 990 12.3112 110.434 2 46 7 290
1983276N06130 1983 66 WP MM HERBERT 1983-10-08 06:00:00 TS 12.3830 110.414 45 994 tokyo main 100 66 OOOO______P___ jtwc_wp WP131983 12.5000 110.100 50 0 12.4000 110.800 3 45 994 0 9 100 100 0 12.2000 110.700 3 48 992 12.4000 110.400 TS 45 990 12.4150 110.070 2 47 7 293
1983276N06130 1983 66 WP MM HERBERT 1983-10-08 09:00:00 TS 12.5417 110.069 main 66 24 PPPP______P___ WP131983 12.5575 109.742 50 0 12.6424 110.465 3 45 994 0 9 100 100 12.3775 110.365 3 43 993 12.6200 110.050 TS 45 990 12.5113 109.721 2 48 8 296
1983276N06130 1983 66 WP MM HERBERT 1983-10-08 12:00:00 TS 12.7200 109.720 45 994 tokyo main 24 0 OOOO______O___ jtwc_wp WP131983 12.6000 109.400 50 0 12.9000 110.100 3 45 994 0 9 100 100 0 12.6000 110.000 2 38 995 12.9000 109.700 TS 45 990 12.6000 109.400 2 50 8 298
1983276N06130 1983 66 WP MM HERBERT 1983-10-08 15:00:00 TS 12.9048 109.363 main 0 0 PPPP______P___ WP131983 12.7000 109.078 47 0 13.1226 109.650 3 42 995 0 9 75 75 12.7849 109.630 2 38 995 13.2350 109.342 TS 42 992 12.6816 109.115 2 47 8 300
1983276N06130 1983 66 WP MM HERBERT 1983-10-08 18:00:00 TS 13.0984 109.034 40 996 tokyo main 0 0 OOOO______P___ jtwc_wp WP131983 12.8000 108.800 45 0 13.3000 109.200 3 40 996 0 9 50 50 0 13.0000 109.200 2 38 995 13.6000 109.000 TS 40 995 12.7575 108.860 2 45 8 301
1983276N06130 1983 66 WP MM HERBERT 1983-10-08 21:00:00 TS 13.2946 108.693 main 0 0 PPPP______P___ WP131983 12.8625 108.582 42 0 13.4074 108.842 3 998 0 9 13.3002 108.635 2 38 996 13.9550 108.690 TS 35 997 12.8297 108.625 2 42 8 300
1983276N06130 1983 66 WP MM HERBERT 1983-10-09 00:00:00 TS 13.5000 108.327 1000 tokyo main 0 0 OOOO______O___ jtwc_wp WP131983 12.9000 108.400 40 0 13.5000 108.500 2 1000 0 0 0 13.6000 108.100 2 38 998 14.3000 108.400 TD 30 1000 12.9000 108.400 2 40 9 300
1983276N06130 1983 66 WP MM HERBERT 1983-10-09 03:00:00 TS 13.7249 107.935 main 0 0 _PP___________ WP131983 -1 13.6424 108.115 2 1000 0 0 13.8073 107.755 2 33 999 TD 2 8 300
1983276N06130 1983 66 WP MM HERBERT 1983-10-09 06:00:00 TS 13.9000 107.600 1000 tokyo main 0 0 _OO___________ -1 13.8000 107.700 2 1000 0 0 0 14.0000 107.500 1 29 1000 2 7 299
1983276N06130 1983 66 WP MM HERBERT 1983-10-09 09:00:00 TS 14.0924 107.265 main 0 0 _PP___________ -1 13.9425 107.250 2 1000 0 0 14.2423 107.280 1 26 1002 2 8 301
1983276N06130 1983 66 WP MM HERBERT 1983-10-09 12:00:00 TS 14.3000 106.900 1000 tokyo main 0 0 _OO___________ -1 14.1000 106.800 2 1000 0 0 0 14.5000 107.000 1 23 1004 9 297
1983276N06130 1983 66 WP MM HERBERT 1983-10-09 15:00:00 TS 14.5177 106.416 main 0 0 _PP___________ -1 14.2851 106.333 2 1002 0 0 14.7503 106.500 1 21 1004 10 297
1983276N06130 1983 66 WP MM HERBERT 1983-10-09 18:00:00 TS 14.7500 106.000 1004 tokyo main 0 0 _OO___________ -1 14.5000 106.000 2 1004 0 0 0 15.0000 106.000 0 19 1004 7 312
1983276N06130 1983 66 WP MM HERBERT 1983-10-09 21:00:00 TS 15.0035 105.863 main 0 0 _PP___________ -1 14.7422 106.015 2 1005 0 0 15.2648 105.712 0 19 1004 6 334
1983276N06130 1983 66 WP MM HERBERT 1983-10-10 00:00:00 TS 15.2500 105.750 1006 tokyo main 0 0 _OO___________ -1 15.0000 106.000 2 1006 0 0 0 15.5000 105.500 0 19 1004 6 317
1983276N06130 1983 66 WP MM HERBERT 1983-10-10 03:00:00 TS 15.4613 105.424 main 0 0 _PP___________ -1 15.2502 105.575 2 1006 0 0 15.6724 105.272 0 19 1004 8 298
1983276N06130 1983 66 WP MM HERBERT 1983-10-10 06:00:00 TS 15.6286 105.000 1006 tokyo main 0 0 _OO___________ -1 15.5000 105.000 2 1006 0 0 0 15.8000 105.000 0 19 1004 9 293
1983276N06130 1983 66 WP MM HERBERT 1983-10-10 09:00:00 TS 15.8267 104.543 main 0 0 _PP___________ -1 15.7874 104.500 2 1006 0 0 15.9052 104.630 0 19 1005 10 292
1983276N06130 1983 66 WP MM HERBERT 1983-10-10 12:00:00 TS 16.0000 104.040 1006 tokyo main 0 0 _OO___________ -1 16.0000 104.000 2 1006 0 0 0 16.0000 104.200 0 19 1006 10 282
1983276N06130 1983 66 WP MM HERBERT 1983-10-10 15:00:00 TS 16.0374 103.500 main 0 0 _P____________ -1 16.0374 103.500 2 1006 0 0 0 10 270
1983276N06130 1983 66 WP MM HERBERT 1983-10-10 18:00:00 TS 16.0000 103.000 1006 tokyo main 0 0 _O____________ -1 16.0000 103.000 2 1006 0 0 0 10 268
1983276N06130 1983 66 WP MM HERBERT 1983-10-10 21:00:00 TS 15.9999 102.500 main 0 0 _P____________ -1 15.9999 102.500 2 1006 0 0 10 270
1983276N06130 1983 66 WP MM HERBERT 1983-10-11 00:00:00 TS 16.0000 102.000 1007 tokyo main 0 0 _O____________ -1 16.0000 102.000 2 1007 0 0 0 9 268
1983276N06130 1983 66 WP MM HERBERT 1983-10-11 03:00:00 TS 15.9617 101.574 main 0 0 _P____________ -1 15.9617 101.574 2 1006 0 0 10 270
1983276N06130 1983 66 WP MM HERBERT 1983-10-11 06:00:00 TS 16.0000 101.000 1006 tokyo main 0 0 _O____________ -1 16.0000 101.000 2 1006 0 0 0 14 280
1983276N06130 1983 66 WP MM HERBERT 1983-10-11 09:00:00 TS 16.2017 100.101 main 0 0 _P____________ -1 16.2017 100.101 2 1005 0 0 20 285
1983276N06130 1983 66 NI BB HERBERT 1983-10-11 12:00:00 TS 16.5000 99.0000 main 0 _O____________ -1 16.5000 99.0000 2 1004 0 0 0 22 286

デジタル台風データ・検索

IBTrACS Databaseについて

本データベースは、米国NOAAが公開する1842年以降の世界の熱帯低気圧のベストトラックデータアーカイブInternational Best Track Archive for Climate Stewardship (IBTrACS)を、ウェブで閲覧しやすい形式に変換したものです。

最終更新日:2021-12-01